<?xml version='1.0' encoding='UTF-8'?><gpx version="1.1" creator="JPX - https://github.com/jenetics/jpx" xmlns="http://www.topografix.com/GPX/1/1"><trk><trkseg><trkpt lat="45.385315600126376" lon="11.788151336708388"><ele>15.0</ele><time>2026-04-19T15:28:45Z</time></trkpt><trkpt lat="45.38528799885738" lon="11.788231985460554"><ele>15.0</ele><time>2026-04-19T15:28:48Z</time></trkpt><trkpt lat="45.38523030362045" lon="11.788319262855726"><ele>15.0</ele><time>2026-04-19T15:28:52Z</time></trkpt><trkpt lat="45.3851651937036" lon="11.788279035658592"><ele>15.0</ele><time>2026-04-19T15:28:54Z</time></trkpt><trkpt lat="45.38508573481868" lon="11.788304520288492"><ele>15.0</ele><time>2026-04-19T15:29:08.001Z</time></trkpt><trkpt lat="45.38506060852183" lon="11.788190802180951"><ele>15.0</ele><time>2026-04-19T15:29:23.001Z</time></trkpt><trkpt lat="45.38511612052728" lon="11.788254888435388"><ele>15.0</ele><time>2026-04-19T15:29:40Z</time></trkpt><trkpt lat="45.38505788213232" lon="11.788204788252935"><ele>15.0</ele><time>2026-04-19T15:29:50Z</time></trkpt><trkpt lat="45.38528697651924" lon="11.787994879003291"><ele>15.0</ele><time>2026-04-19T15:31:01.02Z</time></trkpt><trkpt lat="45.38534690347626" lon="11.787931283954203"><ele>15.0</ele><time>2026-04-19T15:31:06.001Z</time></trkpt><trkpt lat="45.38536193783056" lon="11.787796808896898"><ele>15.0</ele><time>2026-04-19T15:31:08.001Z</time></trkpt><trkpt lat="45.3852532852957" lon="11.78781716781456"><ele>15.0</ele><time>2026-04-19T15:31:09.001Z</time></trkpt><trkpt lat="45.38515745808526" lon="11.78776616952931"><ele>15.0</ele><time>2026-04-19T15:31:11.001Z</time></trkpt><trkpt lat="45.38515261284709" lon="11.788008281108548"><ele>15.0</ele><time>2026-04-19T15:31:14.001Z</time></trkpt><trkpt lat="45.38517028267994" lon="11.788137430880466"><ele>15.0</ele><time>2026-04-19T15:31:17.001Z</time></trkpt><trkpt lat="45.385150486629165" lon="11.788239679414234"><ele>15.0</ele><time>2026-04-19T15:31:20.001Z</time></trkpt><trkpt lat="45.38511472385509" lon="11.788330084404882"><ele>15.0</ele><time>2026-04-19T15:31:23Z</time></trkpt><trkpt lat="45.38508997205069" lon="11.788428990286352"><ele>15.0</ele><time>2026-04-19T15:31:26.017Z</time></trkpt><trkpt lat="45.38505522073937" lon="11.78852909664918"><ele>15.0</ele><time>2026-04-19T15:31:29.02Z</time></trkpt><trkpt lat="45.3851910741655" lon="11.788205659373364"><ele>15.0</ele><time>2026-04-19T15:31:37Z</time></trkpt><trkpt lat="45.38525631970741" lon="11.788248443055833"><ele>15.0</ele><time>2026-04-19T15:31:45Z</time></trkpt><trkpt lat="45.38519836150286" lon="11.788302109893642"><ele>15.0</ele><time>2026-04-19T15:31:52Z</time></trkpt><trkpt lat="45.38519698911291" lon="11.788298634331984"><ele>15.0</ele><time>2026-04-19T15:32:23.999Z</time></trkpt><trkpt lat="45.38469237924307" lon="11.788431880269734"><ele>15.0</ele><time>2026-04-19T15:33:06.999Z</time></trkpt><trkpt lat="45.38493607479369" lon="11.788277128023745"><ele>15.0</ele><time>2026-04-19T15:33:08.999Z</time></trkpt><trkpt lat="45.38505982874392" lon="11.788268082619481"><ele>15.0</ele><time>2026-04-19T15:33:23Z</time></trkpt></trkseg></trk></gpx>